Terminal Aerodrome Forecast
Issued by NWS Pueblo, CO

Home | Current Version | Previous Version | Text Only | Print | Product List | Glossary On
Versions: 1 2 3 4 5 6 7 8 9 10 11 12 13 14 15 16 17 18 19 20 21 22 23 24 25 26 27 28
000
FTUS45 KPUB 031120
TAFPUB
TAF
KPUB 031120Z 0312/0412 VRB04KT P6SM OVC035
     FM031600 VRB05KT P6SM FEW050
     FM032000 11007KT P6SM FEW130 SCT170
     FM032300 08006KT P6SM SCT050 SCT130
     FM040200 32006KT P6SM FEW130
     FM040800 VRB04KT P6SM SKC=

USA.gov is the U.S. government's official web portal to all federal, state and local government web resources and services.